Time;durP1;ratioP1;P1;durP2;ratioP2;P2;SDS_P1;SDS_P2;PMS_P1;PMS_P2;Temp;Humidity;BMP_temperature;BMP_pressure;BME280_temperature;BME280_humidity;BME280_pressure;Samples;Min_cycle;Max_cycle;Signal;HPM_P1;HPM_P2
2023/04/11 00:00:07;;;;;;;7.95;4.05;;;;;;;3.77;76.75;99204.25;6311199;22;20109;-93
2023/04/11 00:02:33;;;;;;;7.95;4.30;;;;;;;3.46;76.95;99157.56;6311753;22;20436;-93
2023/04/11 00:05:00;;;;;;;7.53;3.97;;;;;;;3.51;77.33;99168.13;6311724;22;20051;-93
2023/04/11 00:07:25;;;;;;;6.65;3.83;;;;;;;3.66;77.67;99206.81;6311798;22;20022;-93
2023/04/11 00:09:53;;;;;;;7.70;3.90;;;;;;;3.67;78.03;99216.47;6311943;22;20019;-94
2023/04/11 00:12:19;;;;;;;6.47;3.70;;;;;;;3.52;78.98;99211.97;6312202;22;20007;-94
2023/04/11 00:14:47;;;;;;;8.25;4.28;;;;;;;3.44;79.55;99209.25;6311624;22;20053;-92
2023/04/11 00:17:14;;;;;;;6.28;3.58;;;;;;;3.23;79.74;99190.66;6309951;22;20015;-94
2023/04/11 00:19:42;;;;;;;5.97;3.50;;;;;;;3.26;79.01;99203.84;6309677;22;20049;-93
2023/04/11 00:22:08;;;;;;;6.00;3.90;;;;;;;3.04;79.41;99185.25;6311504;22;20016;-94
2023/04/11 00:24:34;;;;;;;6.85;3.63;;;;;;;3.26;79.36;99223.13;6311037;22;20030;-93
2023/04/11 00:27:01;;;;;;;6.68;3.83;;;;;;;3.14;80.52;99215.09;6311692;22;20023;-93
2023/04/11 00:29:27;;;;;;;6.93;3.90;;;;;;;3.03;80.49;99206.25;6311658;22;20027;-92
2023/04/11 00:31:54;;;;;;;5.68;3.55;;;;;;;3.09;79.86;99220.31;6310752;22;20050;-93
2023/04/11 00:34:20;;;;;;;9.07;4.30;;;;;;;3.06;78.36;99180.88;6311114;22;20022;-92
2023/04/11 00:36:46;;;;;;;7.10;4.07;;;;;;;3.31;78.25;99215.28;6311524;22;20019;-93
2023/04/11 00:39:12;;;;;;;6.97;3.70;;;;;;;3.23;79.17;99209.06;6311302;22;20579;-94
2023/04/11 00:41:38;;;;;;;9.65;4.32;;;;;;;3.00;81.94;99188.72;6311447;22;20025;-93
2023/04/11 00:44:14;;;;;;;9.32;4.78;;;;;;;3.25;80.63;99216.13;6314148;22;20345;-93
2023/04/11 00:46:43;;;;;;;9.38;4.70;;;;;;;3.17;82.13;99227.41;6312044;22;20015;-91
2023/04/11 00:49:09;;;;;;;10.45;5.50;;;;;;;3.08;83.28;99229.09;6311487;22;20390;-92
2023/04/11 00:51:35;;;;;;;9.13;4.93;;;;;;;3.09;83.08;99236.09;6311710;22;20027;-93
2023/04/11 00:54:01;;;;;;;9.30;4.85;;;;;;;2.97;82.98;99211.44;6311131;22;20004;-92
2023/04/11 00:56:27;;;;;;;9.35;5.05;;;;;;;2.95;84.29;99224.56;6317603;22;20019;-92
2023/04/11 00:58:54;;;;;;;8.68;4.68;;;;;;;2.90;84.61;99239.38;6310692;22;20039;-92
2023/04/11 01:01:22;;;;;;;9.73;4.78;;;;;;;2.74;85.22;99214.69;6308943;22;20019;-92
2023/04/11 01:03:48;;;;;;;9.40;4.88;;;;;;;2.69;84.78;99200.66;6311505;22;20022;-92
2023/04/11 01:06:17;;;;;;;10.45;5.25;;;;;;;2.67;86.09;99205.00;6311062;22;20015;-92
2023/04/11 01:08:45;;;;;;;9.60;5.28;;;;;;;2.60;85.25;99184.75;6311487;22;20437;-91
2023/04/11 01:11:12;;;;;;;9.20;4.93;;;;;;;2.51;85.04;99176.78;6310753;22;20031;-92
2023/04/11 01:13:40;;;;;;;11.55;5.25;;;;;;;2.53;84.71;99169.81;6311085;22;20082;-93
2023/04/11 01:16:08;;;;;;;8.77;5.20;;;;;;;2.53;85.75;99191.69;6310907;22;20041;-94
2023/04/11 01:18:36;;;;;;;11.38;5.50;;;;;;;2.45;87.16;99185.47;6311003;22;20047;-93
2023/04/11 01:21:02;;;;;;;9.82;5.05;;;;;;;2.29;87.44;99160.78;6311167;22;20470;-93
2023/04/11 01:23:30;;;;;;;11.80;6.88;;;;;;;2.26;86.80;99164.25;6311015;22;20023;-93
2023/04/11 01:25:56;;;;;;;11.32;5.50;;;;;;;2.10;87.56;99138.66;6311127;22;20019;-93
2023/04/11 01:28:21;;;;;;;11.80;6.47;;;;;;;2.37;87.18;99172.25;6310876;22;20023;-93
2023/04/11 01:30:48;;;;;;;11.63;5.80;;;;;;;2.43;87.17;99167.09;6310365;22;20031;-93
2023/04/11 01:33:15;;;;;;;12.50;6.38;;;;;;;2.36;87.98;99164.34;6310976;22;20019;-94
2023/04/11 01:35:41;;;;;;;10.80;5.80;;;;;;;2.44;86.92;99163.59;6310844;22;20003;-94
2023/04/11 01:38:08;;;;;;;10.98;5.78;;;;;;;2.32;85.95;99123.19;6311506;22;20026;-94
2023/04/11 01:40:37;;;;;;;11.38;5.70;;;;;;;2.75;84.80;99155.16;6311866;22;20039;-93
2023/04/11 01:43:03;;;;;;;9.15;5.20;;;;;;;2.78;84.28;99144.72;6309319;22;20348;-91
2023/04/11 01:45:29;;;;;;;9.73;5.32;;;;;;;2.99;82.93;99144.03;6309739;22;20022;-93
2023/04/11 01:47:55;;;;;;;9.90;5.15;;;;;;;2.84;83.22;99143.03;6310818;22;20445;-92
2023/04/11 01:50:21;;;;;;;9.85;5.10;;;;;;;2.63;84.60;99154.19;6310676;22;20026;-93
2023/04/11 01:52:48;;;;;;;11.77;5.95;;;;;;;2.46;84.53;99132.13;6310082;22;20019;-93
2023/04/11 01:55:14;;;;;;;10.07;5.55;;;;;;;2.78;84.65;99186.72;6311019;22;20027;-93
2023/04/11 01:57:42;;;;;;;11.70;5.25;;;;;;;2.74;83.84;99163.94;6310349;22;20019;-93
2023/04/11 02:00:10;;;;;;;9.80;5.50;;;;;;;2.84;82.59;99134.25;6310201;22;20102;-93
2023/04/11 02:02:36;;;;;;;10.82;5.05;;;;;;;3.13;82.14;99163.44;6310806;22;20382;-93
2023/04/11 02:05:02;;;;;;;10.23;5.43;;;;;;;3.18;81.40;99139.81;6310397;22;20130;-93
2023/04/11 02:07:29;;;;;;;11.27;5.32;;;;;;;2.99;81.37;99109.88;6310653;22;20019;-93
2023/04/11 02:09:55;;;;;;;12.25;5.85;;;;;;;2.96;81.83;99133.50;6310270;22;20022;-93
2023/04/11 02:12:21;;;;;;;11.27;5.82;;;;;;;2.70;82.83;99131.50;6309962;22;20449;-93
2023/04/11 02:14:49;;;;;;;10.55;6.03;;;;;;;2.53;84.80;99147.06;6310658;22;20019;-93
2023/04/11 02:17:17;;;;;;;10.88;5.63;;;;;;;2.62;84.65;99156.78;6309385;22;19995;-93
2023/04/11 02:19:45;;;;;;;11.10;5.22;;;;;;;2.65;84.05;99131.44;6309767;22;20047;-95
2023/04/11 02:22:11;;;;;;;9.07;5.05;;;;;;;2.60;84.44;99130.53;6308999;22;20027;-93
2023/04/11 02:24:37;;;;;;;9.95;5.20;;;;;;;2.61;84.16;99124.41;6308764;22;20047;-93
2023/04/11 02:27:06;;;;;;;10.88;5.15;;;;;;;2.80;84.03;99174.50;6310353;22;20038;-93
2023/04/11 02:29:32;;;;;;;9.70;5.57;;;;;;;2.49;84.83;99116.38;6310409;22;20019;-92
2023/04/11 02:32:00;;;;;;;10.32;5.50;;;;;;;2.66;85.10;99146.31;6309409;22;20041;-93
2023/04/11 02:34:26;;;;;;;9.65;5.25;;;;;;;2.78;84.71;99168.34;6310195;22;20016;-93
2023/04/11 02:36:52;;;;;;;10.65;5.47;;;;;;;2.43;84.85;99130.34;6309946;22;20015;-94
2023/04/11 02:39:22;;;;;;;9.85;5.32;;;;;;;2.52;85.38;99154.94;6311808;22;20023;-93
2023/04/11 02:41:48;;;;;;;9.52;5.18;;;;;;;2.52;85.88;99163.69;6309920;22;20019;-93
2023/04/11 02:44:14;;;;;;;9.50;5.05;;;;;;;2.55;85.40;99152.34;6309962;22;20020;-94
2023/04/11 02:46:40;;;;;;;11.15;5.43;;;;;;;2.61;84.83;99165.53;6310494;22;20030;-94
2023/04/11 02:49:07;;;;;;;10.45;5.47;;;;;;;2.38;84.10;99118.03;6310188;22;20105;-92
2023/04/11 02:51:33;;;;;;;10.27;5.50;;;;;;;2.43;84.70;99137.34;6309376;22;20041;-92
2023/04/11 02:53:59;;;;;;;12.98;6.13;;;;;;;2.24;85.60;99124.00;6309497;22;20015;-93
2023/04/11 02:56:25;;;;;;;12.18;5.75;;;;;;;2.25;85.92;99138.84;6309082;22;20022;-93
2023/04/11 02:58:52;;;;;;;11.50;6.07;;;;;;;2.21;87.03;99158.06;6309497;22;20136;-92
2023/04/11 03:01:20;;;;;;;11.82;6.10;;;;;;;1.92;85.63;99114.84;6309584;22;20106;-92
2023/04/11 03:03:46;;;;;;;10.70;6.22;;;;;;;2.28;84.01;99143.28;6309237;22;20023;-93
2023/04/11 03:06:13;;;;;;;9.55;4.93;;;;;;;2.47;82.25;99150.50;6310194;22;20070;-93
2023/04/11 03:08:39;;;;;;;12.25;5.95;;;;;;;2.66;81.15;99158.56;6310164;22;20015;-93
2023/04/11 03:11:05;;;;;;;9.57;5.45;;;;;;;2.63;79.76;99143.69;6309632;22;20035;-93
2023/04/11 03:13:31;;;;;;;10.30;5.25;;;;;;;2.64;79.62;99131.44;6312343;22;20023;-92
2023/04/11 03:15:58;;;;;;;9.90;5.70;;;;;;;2.66;80.03;99133.19;6311785;22;20051;-92
2023/04/11 03:18:24;;;;;;;11.43;6.05;;;;;;;2.40;80.82;99126.78;6312296;22;20178;-92
2023/04/11 03:20:51;;;;;;;10.18;5.57;;;;;;;2.29;81.42;99131.03;6312080;22;20019;-92
2023/04/11 03:23:18;;;;;;;12.23;5.50;;;;;;;2.39;80.17;99123.28;6313441;22;20022;-90
2023/04/11 03:25:44;;;;;;;10.55;5.65;;;;;;;2.28;80.05;99100.41;6312317;22;20019;-91
2023/04/11 03:28:10;;;;;;;11.80;5.80;;;;;;;2.38;80.50;99132.00;6313065;22;20106;-92
2023/04/11 03:30:39;;;;;;;9.32;5.10;;;;;;;2.28;80.64;99116.16;6311472;22;20076;-92
2023/04/11 03:33:05;;;;;;;;;;;;;;;2.46;82.15;99137.38;6312823;22;20015;-92
2023/04/11 03:35:31;;;;;;;9.98;5.00;;;;;;;2.23;83.01;99117.00;6312248;22;19922;-91
2023/04/11 03:37:57;;;;;;;9.60;5.65;;;;;;;2.21;84.02;99125.69;6312242;22;20083;-93
2023/04/11 03:40:25;;;;;;;11.68;6.32;;;;;;;2.07;86.19;99116.78;6312867;22;20042;-91
2023/04/11 03:42:51;;;;;;;11.40;6.03;;;;;;;1.82;87.68;99116.44;6310639;22;20031;-92
2023/04/11 03:45:17;;;;;;;13.35;6.35;;;;;;;1.74;89.43;99116.34;6311026;22;20020;-94
2023/04/11 03:47:43;;;;;;;9.27;4.97;;;;;;;1.74;88.54;99115.47;6312537;22;20050;-95
2023/04/11 03:50:10;;;;;;;9.05;5.20;;;;;;;1.73;86.58;99111.09;6312559;22;20110;-93
2023/04/11 03:52:36;;;;;;;8.07;4.72;;;;;;;1.91;86.48;99157.66;6312625;22;20437;-92
2023/04/11 03:55:03;;;;;;;8.80;4.82;;;;;;;1.83;85.56;99129.59;6312440;22;20066;-92
2023/04/11 03:57:31;;;;;;;8.48;4.63;;;;;;;2.02;84.90;99140.34;6311710;22;20035;-92
2023/04/11 03:59:57;;;;;;;9.85;5.43;;;;;;;2.07;85.69;99141.28;6311528;22;20119;-92
2023/04/11 04:02:23;;;;;;;10.07;4.72;;;;;;;1.92;86.11;99117.47;6311326;22;20015;-92
2023/04/11 04:04:54;;;;;;;15.05;6.30;;;;;;;1.94;87.65;99123.63;6318986;22;20019;-94
2023/04/11 04:07:21;;;;;;;11.57;6.15;;;;;;;1.98;87.69;99135.91;6319230;22;20030;-93
2023/04/11 04:09:47;;;;;;;8.52;5.03;;;;;;;1.91;87.87;99134.94;6314105;22;20019;-91
2023/04/11 04:12:13;;;;;;;9.70;5.00;;;;;;;1.88;88.05;99142.75;6312150;22;20027;-93
2023/04/11 04:14:40;;;;;;;9.40;5.13;;;;;;;1.59;90.79;99130.13;6312830;22;20022;-92
2023/04/11 04:17:07;;;;;;;9.27;5.25;;;;;;;1.66;91.74;99144.19;6311768;22;20007;-93
2023/04/11 04:19:32;;;;;;;8.45;4.50;;;;;;;1.60;92.30;99112.66;6311589;22;20020;-93
2023/04/11 04:21:58;;;;;;;8.75;4.43;;;;;;;1.70;91.69;99106.69;6311289;22;20487;-94
2023/04/11 04:24:24;;;;;;;8.32;4.35;;;;;;;1.89;91.54;99112.16;6311418;22;20019;-94
2023/04/11 04:26:56;;;;;;;8.32;4.57;;;;;;;1.87;90.53;99087.69;6312585;22;20030;-94
2023/04/11 04:29:22;;;;;;;7.30;4.35;;;;;;;2.00;90.32;99093.09;6314316;22;20022;-93
2023/04/11 04:31:51;;;;;;;8.90;4.65;;;;;;;2.09;90.54;99102.81;6315210;22;20039;-93
2023/04/11 04:34:20;;;;;;;11.35;6.07;;;;;;;2.17;90.57;99119.53;6314725;22;20026;-94
2023/04/11 04:36:48;;;;;;;9.63;5.18;;;;;;;2.24;90.69;99120.50;6315922;22;20011;-94
2023/04/11 04:39:18;;;;;;;11.38;5.65;;;;;;;2.21;89.31;99123.06;6315320;22;20066;-93
2023/04/11 04:41:44;;;;;;;17.50;6.72;;;;;;;1.88;90.88;99082.44;6312827;22;20148;-92
2023/04/11 04:44:11;;;;;;;10.48;5.32;;;;;;;2.08;91.67;99119.41;6312845;22;20019;-93
2023/04/11 04:46:37;;;;;;;13.10;7.10;;;;;;;2.18;91.65;99120.41;6312493;22;20092;-94
2023/04/11 04:49:06;;;;;;;12.18;6.72;;;;;;;2.20;91.38;99114.31;6312467;22;20018;-94
2023/04/11 04:51:32;;;;;;;10.57;6.57;;;;;;;2.24;91.39;99120.50;6312934;22;20074;-93
2023/04/11 04:53:59;;;;;;;11.13;6.25;;;;;;;2.29;90.44;99118.78;6313017;22;20015;-94
2023/04/11 04:56:29;;;;;;;11.35;5.80;;;;;;;2.28;89.35;99122.28;6312208;22;20165;-92
2023/04/11 04:58:55;;;;;;;9.88;5.35;;;;;;;2.28;87.69;99118.75;6312878;22;20121;-94
2023/04/11 05:01:25;;;;;;;10.93;5.72;;;;;;;2.38;87.63;99150.38;6312605;22;20006;-92
2023/04/11 05:04:00;;;;;;;10.85;5.15;;;;;;;2.26;88.21;99124.03;6312316;22;20020;-92
2023/04/11 05:06:30;;;;;;;10.30;5.45;;;;;;;2.41;87.76;99152.19;6312069;22;20030;-92
2023/04/11 05:08:57;;;;;;;11.27;6.00;;;;;;;2.19;88.96;99094.22;6311940;22;20021;-94
2023/04/11 05:11:24;;;;;;;12.25;5.90;;;;;;;2.44;87.94;99139.09;6310481;22;20085;-93
2023/04/11 05:13:53;;;;;;;13.25;6.65;;;;;;;2.27;87.85;99110.03;6311007;22;20043;-94
2023/04/11 05:16:21;;;;;;;11.65;6.18;;;;;;;2.53;88.46;99126.06;6311789;22;20465;-94
2023/04/11 05:18:50;;;;;;;11.88;6.18;;;;;;;2.45;87.62;99084.00;6312617;22;20015;-93
2023/04/11 05:21:16;;;;;;;10.80;5.75;;;;;;;2.41;86.74;99087.44;6312318;22;20027;-93
2023/04/11 05:23:44;;;;;;;12.05;6.10;;;;;;;2.44;87.62;99084.84;6312467;22;20039;-93
2023/04/11 05:26:13;;;;;;;10.77;5.60;;;;;;;2.73;88.69;99109.63;6312702;22;20019;-94
2023/04/11 05:28:40;;;;;;;12.20;5.70;;;;;;;2.73;88.47;99088.63;6313684;22;20015;-94
2023/04/11 05:31:07;;;;;;;12.18;5.82;;;;;;;2.90;87.68;99097.53;6311683;22;20326;-95
2023/04/11 05:33:33;;;;;;;13.73;7.15;;;;;;;3.09;86.70;99127.47;6312868;22;20109;-94
2023/04/11 05:36:00;;;;;;;13.75;6.75;;;;;;;3.17;86.06;99120.56;6311426;22;20161;-95
2023/04/11 05:38:26;;;;;;;14.63;6.45;;;;;;;3.36;85.19;99121.59;6311715;22;20015;-95
2023/04/11 05:40:53;;;;;;;12.88;5.85;;;;;;;3.44;83.60;99111.97;6311179;22;20027;-94
2023/04/11 05:43:19;;;;;;;13.77;6.90;;;;;;;3.88;82.51;99160.47;6311345;22;20019;-93
2023/04/11 05:45:46;;;;;;;14.48;6.95;;;;;;;3.93;81.57;99144.75;6310632;22;20023;-95
2023/04/11 05:48:13;;;;;;;11.50;6.30;;;;;;;3.85;80.74;99121.00;6315326;22;20015;-94
2023/04/11 05:50:42;;;;;;;12.60;6.57;;;;;;;3.99;79.63;99113.19;6311620;22;20054;-93
2023/04/11 05:53:08;;;;;;;;;;;;;;;4.23;77.17;99165.94;6310965;22;20019;-91
2023/04/11 05:55:35;;;;;;;8.13;4.55;;;;;;;3.94;75.88;99138.59;6310235;22;20226;-92
2023/04/11 05:58:02;;;;;;;8.30;4.93;;;;;;;3.74;74.78;99120.94;6311896;22;20516;-95
2023/04/11 06:00:31;;;;;;;8.80;4.80;;;;;;;3.93;75.33;99121.94;6310820;22;20023;-93
2023/04/11 06:02:57;;;;;;;10.93;5.40;;;;;;;3.93;74.86;99121.06;6312568;22;20016;-93
2023/04/11 06:05:24;;;;;;;9.73;5.28;;;;;;;4.03;75.98;99122.84;6311466;22;20023;-94
2023/04/11 06:07:50;;;;;;;7.93;4.53;;;;;;;4.18;74.02;99107.13;6311921;22;20019;-91
2023/04/11 06:10:16;;;;;;;8.40;4.82;;;;;;;4.58;72.92;99111.66;6311159;22;20026;-95
2023/04/11 06:12:42;;;;;;;8.00;4.70;;;;;;;4.93;71.77;99123.13;6310906;22;20019;-94
2023/04/11 06:15:11;;;;;;;10.30;5.40;;;;;;;5.21;69.57;99135.47;6310635;22;20026;-94
2023/04/11 06:17:37;;;;;;;10.00;5.38;;;;;;;5.01;69.99;99101.16;6310736;22;20345;-94
2023/04/11 06:20:04;;;;;;;10.85;5.80;;;;;;;4.41;71.73;99107.22;6312607;22;20046;-95
2023/04/11 06:22:32;;;;;;;11.68;5.60;;;;;;;4.61;71.68;99145.91;6313095;22;20015;-94
2023/04/11 06:24:59;;;;;;;10.15;5.80;;;;;;;4.29;72.26;99101.91;6313935;22;20354;-94
2023/04/11 06:27:25;;;;;;;9.85;5.45;;;;;;;4.53;72.44;99101.09;6313061;22;20026;-95
2023/04/11 06:29:51;;;;;;;10.15;5.40;;;;;;;4.78;70.88;99082.72;6311670;22;20039;-92
2023/04/11 06:32:19;;;;;;;10.57;5.88;;;;;;;4.80;69.05;99092.38;6311547;22;20015;-94
2023/04/11 06:34:45;;;;;;;9.90;5.45;;;;;;;4.90;67.60;99131.03;6310332;22;20022;-93
2023/04/11 06:37:11;;;;;;;10.57;5.88;;;;;;;5.03;68.75;99105.59;6309694;22;20027;-95
2023/04/11 06:39:37;;;;;;;8.80;5.15;;;;;;;5.63;68.01;99137.19;6310422;22;20433;-94
2023/04/11 06:44:39;;;;;;;10.52;6.07;;;;;;;6.38;63.29;99125.56;6300314;22;20076;-95
2023/04/11 06:47:07;;;;;;;10.55;4.68;;;;;;;6.75;62.25;99110.41;6311479;22;20353;-92
2023/04/11 06:49:34;;;;;;;8.55;5.10;;;;;;;7.14;60.25;99126.88;6311184;22;20015;-95
2023/04/11 06:52:02;;;;;;;8.18;5.10;;;;;;;7.25;58.81;99089.75;6311469;22;20069;-95
2023/04/11 06:54:28;;;;;;;9.25;4.97;;;;;;;7.71;58.25;99133.44;6311552;22;20062;-94
2023/04/11 06:56:56;;;;;;;9.70;5.50;;;;;;;7.78;57.96;99103.38;6311891;22;20015;-94
2023/04/11 06:59:22;;;;;;;10.32;5.55;;;;;;;8.00;57.83;99096.06;6310786;22;20015;-91
2023/04/11 07:01:51;;;;;;;11.48;6.88;;;;;;;8.17;58.16;99094.09;6311582;22;20092;-93
2023/04/11 07:17:01;;;;;;;13.25;6.30;;;;;;;8.80;53.09;99111.88;6060066;23;20022;-93
2023/04/11 07:20:08;;;;;;;12.35;6.03;;;;;;;8.50;53.52;99064.56;6047955;23;20027;-93
2023/04/11 07:23:26;;;;;;;10.82;6.60;;;;;;;8.82;53.41;99080.88;6049258;23;20027;-92
2023/04/11 07:26:22;;;;;;;12.50;6.55;;;;;;;8.55;54.92;99074.22;6046417;23;20019;-92
2023/04/11 07:30:04;;;;;;;11.35;6.40;;;;;;;8.75;53.46;99075.69;6072303;23;20050;-92
2023/04/11 07:34:07;;;;;;;;;;;;;;;;;;;;;
2023/04/11 07:45:35;;;;;;;14.95;7.55;;;;;;;8.75;54.97;99108.38;5922846;23;20061;-93
2023/04/11 08:03:27;;;;;;;16.17;7.63;;;;;;;10.55;48.09;99088.38;5825514;24;20102;-93
2023/04/11 08:06:31;;;;;;;13.05;7.63;;;;;;;9.65;50.79;99102.53;5802055;24;20038;-92
2023/04/11 08:25:32;;;;;;;13.52;7.10;;;;;;;11.10;46.34;99057.81;5781992;24;20045;-95
2023/04/11 08:28:44;;;;;;;12.05;6.90;;;;;;;11.24;46.86;99060.16;5850611;24;20022;-92
2023/04/11 08:31:34;;;;;;;15.63;8.10;;;;;;;11.41;46.39;99017.13;5871619;24;20073;-91
2023/04/11 08:34:23;;;;;;;;;;;;;;;;;;;;;
2023/04/11 08:37:10;;;;;;;13.68;7.55;;;;;;;11.63;45.46;99020.09;5833097;24;20011;-93
2023/04/11 09:10:05;;;;;;;;;;;;;;;;;;;;;
2023/04/11 09:13:20;;;;;;;12.30;7.13;;;;;;;12.70;43.11;98979.56;5061554;28;20124;-92
2023/04/11 09:17:12;;;;;;;14.80;8.13;;;;;;;12.86;44.45;98966.63;5040437;28;20041;-91
2023/04/11 09:24:52;;;;;;;;;;;;;;;;;;;;;
2023/04/11 09:27:23;;;;;;;;;;;;;;;13.65;43.22;98974.63;5041985;28;20083;-91
2023/04/11 09:30:21;;;;;;;13.45;7.38;;;;;;;13.22;44.25;98965.41;5053630;28;20011;-93
2023/04/11 09:32:52;;;;;;;13.85;7.65;;;;;;;13.54;43.01;98954.50;5038293;28;20037;-93
2023/04/11 09:36:00;;;;;;;17.08;8.73;;;;;;;13.75;43.54;98923.44;5030222;28;20060;-91
2023/04/11 09:38:36;;;;;;;16.73;9.13;;;;;;;14.19;42.20;98933.38;4978766;28;20530;-92
2023/04/11 09:41:32;;;;;;;13.75;8.05;;;;;;;14.35;41.20;98917.56;5001291;28;20046;-92
2023/04/11 09:44:17;;;;;;;13.07;8.07;;;;;;;14.03;41.17;98927.75;4954048;28;20053;-93
2023/04/11 09:47:04;;;;;;;15.93;8.30;;;;;;;13.97;41.95;98893.22;5022003;28;20050;-91
2023/04/11 09:49:40;;;;;;;13.65;8.55;;;;;;;14.26;41.98;98920.63;5035164;28;20077;-93
2023/04/11 09:52:18;;;;;;;12.88;7.75;;;;;;;14.60;39.56;98930.88;5020934;28;20042;-94
2023/04/11 10:02:25;;;;;;;12.13;7.30;;;;;;;14.64;41.28;98921.78;4995302;28;20049;-93
2023/04/11 10:09:22;;;;;;;12.45;8.00;;;;;;;14.38;41.13;98912.13;4925300;29;20056;-93
2023/04/11 10:12:34;;;;;;;14.38;8.70;;;;;;;14.65;41.28;98909.25;4924047;29;20076;-94
2023/04/11 10:16:14;;;;;;;14.68;7.93;;;;;;;14.93;41.48;98909.84;4934275;29;20140;-93
2023/04/11 10:19:26;;;;;;;11.43;7.15;;;;;;;15.52;40.36;98881.34;4892584;29;20098;-93
2023/04/11 10:23:15;;;;;;;17.40;8.57;;;;;;;15.73;40.40;98850.06;4904271;29;20116;-92
2023/04/11 10:30:50;;;;;;;11.40;7.43;;;;;;;16.44;38.55;98876.19;4843486;29;20049;-94
2023/04/11 10:33:25;;;;;;;13.80;8.07;;;;;;;16.04;40.43;98861.13;4812643;29;20053;-94
2023/04/11 10:36:02;;;;;;;31.40;26.05;;;;;;;16.17;39.69;98873.00;4887794;29;20044;-92
2023/04/11 10:39:19;;;;;;;;;;;;;;;;;;;;;
2023/04/11 10:54:16;;;;;;;11.88;7.10;;;;;;;17.02;39.08;98845.50;4831104;29;20047;-93
2023/04/11 10:56:58;;;;;;;11.35;7.03;;;;;;;16.96;38.55;98822.53;4820335;29;20038;-93
2023/04/11 11:01:24;;;;;;;12.02;7.15;;;;;;;16.33;40.18;98822.13;4824580;29;20110;-93
2023/04/11 11:02:57;;;;;;;15.70;8.40;;;;;;;16.79;39.62;98849.38;4797418;29;20066;-93
2023/04/11 11:09:27;;;;;;;12.75;7.40;;;;;;;16.69;41.15;98840.03;4826366;29;20051;-93
2023/04/11 11:12:52;;;;;;;12.48;6.70;;;;;;;16.68;40.18;98780.09;4825165;29;20065;-94
2023/04/11 11:19:30;;;;;;;27.90;9.50;;;;;;;16.33;40.27;98763.09;4786150;30;20482;-93
2023/04/11 11:22:36;;;;;;;11.82;6.93;;;;;;;16.84;39.89;98804.38;4786603;29;20154;-94
2023/04/11 11:25:14;;;;;;;15.13;8.60;;;;;;;16.98;39.33;98792.88;4908867;29;20057;-96
2023/04/11 11:32:16;;;;;;;10.95;6.65;;;;;;;17.00;38.04;98786.50;4888445;29;20056;-91
2023/04/11 11:38:51;;;;;;;11.10;5.95;;;;;;;16.75;38.62;98761.84;4794773;29;20180;-92
2023/04/11 11:41:38;;;;;;;10.93;5.53;;;;;;;17.01;40.91;98787.38;4731938;30;20064;-92
2023/04/11 11:44:03;;;;;;;11.20;6.10;;;;;;;16.87;39.01;98753.16;4773943;29;20085;-91
2023/04/11 11:47:13;;;;;;;9.15;5.60;;;;;;;16.87;38.96;98753.16;4819003;29;20065;-91
2023/04/11 11:57:12;;;;;;;14.23;6.88;;;;;;;17.15;41.25;98765.13;4787987;30;20040;-93
2023/04/11 12:00:40;;;;;;;9.63;5.30;;;;;;;17.35;40.13;98759.56;4786049;29;20437;-93
2023/04/11 12:04:13;;;;;;;10.55;5.65;;;;;;;17.32;39.22;98751.63;4748465;30;20105;-91
2023/04/11 12:07:30;;;;;;;10.75;5.80;;;;;;;16.69;40.44;98697.72;4766582;29;20387;-91
2023/04/11 12:10:40;;;;;;;9.10;5.13;;;;;;;17.09;39.28;98734.09;4812375;29;20084;-93
2023/04/11 12:13:14;;;;;;;10.85;6.10;;;;;;;16.75;41.22;98700.97;4874202;29;20092;-94
2023/04/11 12:16:20;;;;;;;11.27;6.78;;;;;;;17.00;41.03;98689.81;4930046;29;20028;-93
2023/04/11 12:19:16;;;;;;;10.80;7.28;;;;;;;17.08;41.51;98685.81;4937155;29;20043;-94
2023/04/11 12:21:51;;;;;;;12.10;7.90;;;;;;;16.86;41.61;98703.09;4944418;29;20086;-92
2023/04/11 12:24:20;;;;;;;12.15;7.20;;;;;;;17.16;41.72;98715.84;4956309;29;20144;-92
2023/04/11 12:26:50;;;;;;;10.95;6.38;;;;;;;17.51;41.68;98729.13;4941680;29;20047;-92
2023/04/11 12:29:25;;;;;;;11.10;6.88;;;;;;;17.52;41.50;98686.03;4971642;28;20065;-93
2023/04/11 12:32:15;;;;;;;11.82;6.25;;;;;;;17.74;40.32;98704.50;4994082;28;20034;-93
2023/04/11 12:34:46;;;;;;;10.30;5.93;;;;;;;17.31;39.77;98703.38;4944526;29;20156;-93
2023/04/11 12:37:11;;;;;;;9.32;5.88;;;;;;;17.59;39.72;98689.25;4957848;28;20047;-93
2023/04/11 12:39:37;;;;;;;8.98;5.70;;;;;;;17.79;39.34;98686.25;4963037;28;20054;-93
2023/04/11 12:42:08;;;;;;;11.82;7.28;;;;;;;17.78;40.47;98684.53;4969126;28;20462;-92
2023/04/11 12:44:57;;;;;;;11.02;7.15;;;;;;;17.88;41.44;98684.88;5000340;28;20109;-93
2023/04/11 12:47:50;;;;;;;;;;;;;;;;;;;;;
2023/04/11 12:50:55;;;;;;;12.18;7.13;;;;;;;17.82;41.36;98661.03;5002485;28;20049;-94
2023/04/11 12:53:40;;;;;;;11.65;6.70;;;;;;;17.36;40.97;98669.03;4989076;28;20041;-93
2023/04/11 12:56:41;;;;;;;10.90;7.03;;;;;;;17.55;42.06;98675.09;5003476;28;20046;-93
2023/04/11 12:59:38;;;;;;;10.40;6.85;;;;;;;18.09;41.50;98715.06;5002033;28;20185;-94
2023/04/11 13:02:25;;;;;;;11.02;7.25;;;;;;;18.13;40.73;98673.56;4999042;28;20058;-93
2023/04/11 13:05:08;;;;;;;;;;;;;;;;;;;;;
2023/04/11 13:12:26;;;;;;;11.00;6.55;;;;;;;18.30;41.37;98690.50;4942903;28;20085;-94
2023/04/11 13:15:24;;;;;;;10.60;6.40;;;;;;;18.14;41.03;98640.28;4976903;28;20050;-93
2023/04/11 13:18:15;;;;;;;11.15;7.43;;;;;;;17.72;42.36;98635.59;4917463;29;20048;-92
2023/04/11 13:21:10;;;;;;;15.52;9.18;;;;;;;17.45;42.14;98631.72;4947037;29;20051;-94
2023/04/11 13:24:26;;;;;;;10.52;6.35;;;;;;;17.58;41.82;98622.97;4921979;29;20071;-95
2023/04/11 13:27:20;;;;;;;11.10;7.03;;;;;;;17.65;42.06;98597.44;4935197;29;20055;-94
2023/04/11 13:30:15;;;;;;;10.35;6.65;;;;;;;18.03;41.83;98640.06;4929896;29;20043;-94
2023/04/11 13:33:02;;;;;;;;;;;;;;;;;;;;;
2023/04/11 13:36:01;;;;;;;11.77;6.93;;;;;;;17.64;42.20;98654.88;4917714;29;20052;-94
2023/04/11 13:38:30;;;;;;;12.50;7.03;;;;;;;17.78;41.87;98651.38;4917530;29;20143;-93
2023/04/11 13:41:13;;;;;;;10.55;6.13;;;;;;;17.77;42.05;98612.00;4925027;29;20163;-93
2023/04/11 13:44:08;;;;;;;12.25;7.47;;;;;;;17.89;41.53;98630.16;5018203;28;20037;-94
2023/04/11 13:46:55;;;;;;;11.55;7.22;;;;;;;17.99;42.07;98623.25;5007507;28;20052;-94
2023/04/11 13:49:38;;;;;;;10.98;6.13;;;;;;;17.89;41.65;98595.19;5033763;28;20045;-92
2023/04/11 13:55:46;;;;;;;9.52;6.35;;;;;;;18.06;41.51;98608.47;5073943;28;20958;-94
2023/04/11 13:58:12;;;;;;;11.55;6.45;;;;;;;17.85;40.96;98572.09;5070414;28;20035;-94
2023/04/11 14:00:56;;;;;;;9.48;6.10;;;;;;;17.89;41.04;98579.03;5081694;28;20040;-93
2023/04/11 14:03:31;;;;;;;8.38;5.70;;;;;;;17.99;40.97;98600.84;5075570;28;20040;-93
2023/04/11 14:06:54;;;;;;;10.18;6.38;;;;;;;17.98;42.36;98583.00;5094865;28;20039;-94
2023/04/11 14:09:50;;;;;;;9.23;6.20;;;;;;;17.77;42.52;98571.66;5100073;28;20043;-94
2023/04/11 14:12:34;;;;;;;10.80;6.70;;;;;;;18.16;41.70;98619.53;5039995;28;20049;-95
2023/04/11 14:15:45;;;;;;;11.50;6.70;;;;;;;18.23;41.47;98601.19;5039804;28;20041;-95
2023/04/11 14:18:26;;;;;;;10.20;6.60;;;;;;;18.12;41.37;98588.38;5024637;28;20076;-92
2023/04/11 14:21:08;;;;;;;9.13;6.30;;;;;;;17.78;41.07;98544.69;5031444;28;20116;-93
2023/04/11 14:23:35;;;;;;;9.40;6.22;;;;;;;17.72;42.19;98541.47;5034524;28;20045;-93
2023/04/11 14:26:17;;;;;;;9.40;6.78;;;;;;;17.51;42.64;98554.38;5042859;28;20063;-92
2023/04/11 14:29:13;;;;;;;9.85;6.03;;;;;;;17.72;42.25;98550.41;5041122;28;20045;-94
2023/04/11 14:31:45;;;;;;;11.55;6.75;;;;;;;17.71;42.28;98542.44;5068240;28;20038;-94
2023/04/11 14:34:11;;;;;;;9.88;6.47;;;;;;;17.84;42.40;98562.28;5036497;28;20041;-92
2023/04/11 14:37:00;;;;;;;9.27;5.97;;;;;;;17.64;41.95;98550.00;5051245;28;20129;-93
2023/04/11 14:39:30;;;;;;;11.52;6.47;;;;;;;17.71;42.80;98551.38;5043157;28;20546;-93
2023/04/11 14:42:17;;;;;;;10.82;5.65;;;;;;;18.06;41.80;98575.31;5049986;28;20037;-95
2023/04/11 14:45:07;;;;;;;9.23;5.72;;;;;;;18.22;41.53;98564.50;5044163;28;20040;-92
2023/04/11 14:47:51;;;;;;;8.20;5.25;;;;;;;17.98;40.48;98527.34;5040006;28;20049;-94
2023/04/11 14:50:17;;;;;;;7.45;5.40;;;;;;;17.76;40.49;98517.00;5003346;28;20042;-95
2023/04/11 14:52:51;;;;;;;8.80;5.70;;;;;;;17.38;40.24;98508.53;5036322;28;20098;-93
2023/04/11 14:55:43;;;;;;;8.55;4.68;;;;;;;17.39;40.62;98511.13;5021453;28;20042;-93
2023/04/11 14:59:06;;;;;;;;;;;;;;;;;;;;;
2023/04/11 15:02:40;;;;;;;7.10;4.68;;;;;;;17.56;39.95;98531.63;4940737;29;20051;-93